createdAt,value
2022-10-17T00:01:11.338Z,96709.95
2022-10-17T00:03:40.195Z,96709.02
2022-10-17T00:06:12.688Z,96709.67
2022-10-17T00:08:42.133Z,96710.67
2022-10-17T00:11:16.692Z,96711.37
2022-10-17T00:13:47.099Z,96716.98
2022-10-17T00:16:16.693Z,96717.85
2022-10-17T00:18:45.002Z,96715.34
2022-10-17T00:21:17.887Z,96718.30
2022-10-17T00:23:47.223Z,96720.69
2022-10-17T00:26:16.197Z,96718.83
2022-10-17T00:28:53.564Z,96721.13
2022-10-17T00:31:23.385Z,96718.88
2022-10-17T00:33:52.405Z,96719.42
2022-10-17T00:36:23.612Z,96722.81
2022-10-17T00:38:57.757Z,96723.56
2022-10-17T00:41:31.988Z,96724.11
2022-10-17T00:44:04.525Z,96722.85
2022-10-17T00:46:39.144Z,96718.53
2022-10-17T00:49:12.776Z,96720.80
2022-10-17T00:51:43.261Z,96724.64
2022-10-17T00:54:14.369Z,96725.80
2022-10-17T00:56:43.734Z,96726.46
2022-10-17T00:59:14.003Z,96726.11
2022-10-17T01:01:47.126Z,96725.98
2022-10-17T01:04:15.970Z,96723.81
2022-10-17T01:06:44.074Z,96721.38
2022-10-17T01:09:12.281Z,96720.28
2022-10-17T01:12:13.277Z,96724.81
2022-10-17T01:15:00.348Z,96722.34
2022-10-17T01:18:03.116Z,96723.05
2022-10-17T01:21:09.910Z,96722.68
2022-10-17T01:23:49.094Z,96726.24
2022-10-17T01:26:23.276Z,96726.66
2022-10-17T01:29:16.600Z,96729.39
2022-10-17T01:31:47.919Z,96730.64
2022-10-17T01:34:41.445Z,96730.13
2022-10-17T01:37:14.881Z,96732.04
2022-10-17T01:39:58.325Z,96732.97
2022-10-17T01:42:59.029Z,96730.67
2022-10-17T01:45:35.245Z,96728.34
2022-10-17T01:48:10.115Z,96726.52
2022-10-17T01:50:44.738Z,96731.34
2022-10-17T01:53:28.521Z,96733.31
2022-10-17T01:56:02.288Z,96736.66
2022-10-17T01:58:42.359Z,96738.67
2022-10-17T02:01:12.756Z,96741.17
2022-10-17T02:03:43.862Z,96739.47
2022-10-17T02:06:12.322Z,96743.48
2022-10-17T02:08:43.845Z,96746.28
2022-10-17T02:11:21.487Z,96750.44
2022-10-17T02:14:14.889Z,96745.23
2022-10-17T02:16:58.006Z,96749.07
2022-10-17T02:19:44.500Z,96749.00
2022-10-17T02:22:12.706Z,96751.66
2022-10-17T02:24:49.782Z,96754.00
2022-10-17T02:27:20.893Z,96751.46
2022-10-17T02:29:54.475Z,96755.52
2022-10-17T02:32:35.242Z,96758.42
2022-10-17T02:35:07.614Z,96759.71
2022-10-17T02:37:36.692Z,96764.70
2022-10-17T02:40:07.083Z,96762.92
2022-10-17T02:42:39.544Z,96766.96
2022-10-17T02:45:09.125Z,96765.64
2022-10-17T02:48:00.174Z,96769.90
2022-10-17T02:50:38.251Z,96770.53
2022-10-17T02:53:11.837Z,96763.64
2022-10-17T02:55:55.375Z,96766.25
2022-10-17T02:58:32.163Z,96767.70
2022-10-17T03:01:02.219Z,96768.52
2022-10-17T03:03:32.521Z,96769.73
2022-10-17T03:06:03.216Z,96766.42
2022-10-17T03:08:31.389Z,96768.48
2022-10-17T03:10:59.545Z,96769.13
2022-10-17T03:13:29.974Z,96767.11
2022-10-17T03:15:58.361Z,96764.82
2022-10-17T03:18:26.358Z,96769.91
2022-10-17T03:20:57.634Z,96772.39
2022-10-17T03:23:25.825Z,96766.06
2022-10-17T03:25:54.078Z,96770.74
2022-10-17T03:28:22.358Z,96769.86
2022-10-17T03:30:50.518Z,96770.05
2022-10-17T03:33:18.575Z,96778.08
2022-10-17T03:35:46.746Z,96777.55
2022-10-17T03:38:15.255Z,96779.77
2022-10-17T03:40:43.340Z,96781.16
2022-10-17T03:43:12.141Z,96780.91
2022-10-17T03:45:40.835Z,96784.61
2022-10-17T03:48:08.993Z,96788.48
2022-10-17T03:50:37.020Z,96790.89
2022-10-17T03:53:05.149Z,96787.39
2022-10-17T03:55:33.539Z,96787.60
2022-10-17T03:58:01.504Z,96790.06
2022-10-17T04:00:29.979Z,96792.67
2022-10-17T04:02:58.832Z,96790.00
2022-10-17T04:05:27.284Z,96785.75
2022-10-17T04:07:55.328Z,96783.93
2022-10-17T04:10:29.728Z,96782.55
2022-10-17T04:12:58.088Z,96786.80
2022-10-17T04:15:26.388Z,96786.49
2022-10-17T04:17:55.061Z,96784.38
2022-10-17T04:20:29.696Z,96781.52
2022-10-17T04:23:01.962Z,96783.84
2022-10-17T04:25:33.375Z,96786.38
2022-10-17T04:28:04.210Z,96785.48
2022-10-17T04:30:33.389Z,96785.23
2022-10-17T04:33:01.572Z,96782.38
2022-10-17T04:35:31.405Z,96784.17
2022-10-17T04:38:03.377Z,96783.59
2022-10-17T04:40:31.566Z,96784.66
2022-10-17T04:43:00.243Z,96789.23
2022-10-17T04:45:35.490Z,96787.61
2022-10-17T04:48:07.633Z,96790.36
2022-10-17T04:50:35.863Z,96791.52
2022-10-17T04:53:49.221Z,96791.20
2022-10-17T04:56:22.151Z,96794.73
2022-10-17T04:58:51.440Z,96794.80
2022-10-17T05:01:23.247Z,96795.18
2022-10-17T05:04:09.667Z,96797.02
2022-10-17T05:06:50.342Z,96797.27
2022-10-17T05:09:46.317Z,96797.71
2022-10-17T05:12:22.557Z,96802.46
2022-10-17T05:14:52.671Z,96801.73
2022-10-17T05:17:23.945Z,96807.23
2022-10-17T05:19:59.860Z,96812.55
2022-10-17T05:22:29.821Z,96810.33
2022-10-17T05:25:01.811Z,96805.98
2022-10-17T05:27:36.610Z,96807.50
2022-10-17T05:30:12.235Z,96804.05
2022-10-17T05:32:54.106Z,96808.80
2022-10-17T05:35:33.263Z,96805.23
2022-10-17T10:22:30.242Z,96915.02
2022-10-17T10:25:19.412Z,96914.34
2022-10-17T10:27:48.142Z,96910.95
2022-10-17T10:30:23.139Z,96912.05
2022-10-17T10:32:51.708Z,96913.58
2022-10-17T10:35:32.213Z,96910.70
2022-10-17T10:38:10.623Z,96906.70
2022-10-17T10:40:50.283Z,96906.67
2022-10-17T10:43:47.252Z,96905.61
2022-10-17T10:46:26.457Z,96906.45
2022-10-17T10:49:01.525Z,96909.11
2022-10-17T10:51:50.931Z,96905.23
2022-10-17T10:58:49.047Z,96901.86
2022-10-17T11:01:59.420Z,96898.20
2022-10-17T11:04:29.471Z,96890.80
2022-10-17T11:07:25.594Z,96890.57
2022-10-17T11:10:23.149Z,96886.53
2022-10-17T11:13:14.940Z,96883.68
2022-10-17T11:15:57.280Z,96880.58
2022-10-17T11:18:44.378Z,96875.14
2022-10-17T11:21:36.854Z,96875.69
2022-10-17T11:24:09.339Z,96877.33
2022-10-17T11:26:49.162Z,96876.23
2022-10-17T11:29:17.837Z,96873.23
2022-10-17T11:31:52.156Z,96875.71
2022-10-17T11:34:25.396Z,96875.23
2022-10-17T11:36:59.571Z,96876.05
2022-10-17T11:40:03.776Z,96877.15
2022-10-17T11:42:41.095Z,96876.00
2022-10-17T11:45:15.405Z,96878.30
2022-10-17T11:47:54.963Z,96876.14
2022-10-17T11:53:22.202Z,96872.77
2022-10-17T11:55:52.050Z,96872.00
2022-10-17T11:58:35.949Z,96874.86
2022-10-17T12:01:12.320Z,96876.13
2022-10-17T12:03:42.271Z,96870.80
2022-10-17T12:06:29.516Z,96879.30
2022-10-17T12:09:18.959Z,96872.85
2022-10-17T12:11:53.580Z,96870.28
2022-10-17T12:14:41.143Z,96872.72
2022-10-17T12:17:38.513Z,96870.88
2022-10-17T12:20:21.414Z,96866.82
2022-10-17T12:22:50.165Z,96870.04
2022-10-17T12:25:24.138Z,96864.17
2022-10-17T12:28:06.423Z,96866.26
2022-10-17T12:30:34.118Z,96866.55
2022-10-17T12:33:11.047Z,96869.59
2022-10-17T12:35:38.840Z,96872.80
2022-10-17T12:38:25.987Z,96870.30
2022-10-17T12:41:01.294Z,96867.33
2022-10-17T12:43:28.800Z,96865.50
2022-10-17T12:45:58.726Z,96868.94
2022-10-17T12:48:38.000Z,96869.91
2022-10-17T12:51:34.139Z,96868.32
2022-10-17T12:54:12.507Z,96872.48
2022-10-17T12:56:49.232Z,96866.80
2022-10-17T12:59:25.945Z,96867.83
2022-10-17T13:01:59.087Z,96862.86
2022-10-17T13:04:28.556Z,96860.44
2022-10-17T13:06:58.657Z,96855.73
2022-10-17T13:09:30.417Z,96857.20
2022-10-17T13:12:03.439Z,96857.88
2022-10-17T13:14:32.777Z,96857.08
2022-10-17T13:17:05.639Z,96858.40
2022-10-17T13:19:45.249Z,96860.09
2022-10-17T13:22:27.667Z,96856.86
2022-10-17T13:25:27.368Z,96857.89
2022-10-17T13:28:13.351Z,96856.98
2022-10-17T13:30:46.238Z,96855.63
2022-10-17T13:33:31.158Z,96853.14
2022-10-17T13:36:00.788Z,96851.73
2022-10-17T13:38:32.260Z,96851.66
2022-10-17T13:41:30.164Z,96851.46
2022-10-17T13:43:52.441Z,96856.92
2022-10-17T13:46:39.113Z,96856.10
2022-10-17T13:49:26.197Z,96856.39
2022-10-17T13:51:57.399Z,96854.66
2022-10-17T13:54:30.386Z,96856.52
2022-10-17T13:57:00.736Z,96857.63
2022-10-17T13:59:39.790Z,96856.67
2022-10-17T14:02:15.075Z,96852.89
2022-10-17T14:05:11.590Z,96853.65
2022-10-17T14:08:09.876Z,96856.63
2022-10-17T14:10:39.096Z,96853.30
2022-10-17T14:13:18.586Z,96854.48
2022-10-17T14:15:46.247Z,96855.02
2022-10-17T14:18:21.347Z,96849.59
2022-10-17T14:23:43.702Z,96849.48
2022-10-17T14:26:15.361Z,96849.96
2022-10-17T14:28:45.697Z,96854.16
2022-10-17T14:31:15.192Z,96852.96
2022-10-17T14:33:50.590Z,96851.08
2022-10-17T14:36:21.513Z,96852.88
2022-10-17T14:38:51.747Z,96847.54
2022-10-17T14:44:23.672Z,96847.96
2022-10-17T14:47:30.735Z,96847.96
2022-10-17T14:50:12.052Z,96845.77
2022-10-17T14:52:40.552Z,96849.15
2022-10-17T14:55:23.144Z,96847.98
2022-10-17T14:57:50.226Z,96848.84
2022-10-17T15:00:18.891Z,96851.48
2022-10-17T15:02:46.740Z,96852.85
2022-10-17T15:05:14.989Z,96852.25
2022-10-17T15:07:42.171Z,96853.98
2022-10-17T15:10:36.792Z,96857.08
2022-10-17T15:13:26.554Z,96856.23
2022-10-17T15:15:51.557Z,96860.92
2022-10-17T15:18:18.917Z,96864.16
2022-10-17T15:20:45.586Z,96861.88
2022-10-17T15:23:12.269Z,96863.20
2022-10-17T15:25:39.401Z,96863.99
2022-10-17T15:28:06.051Z,96867.30
2022-10-17T15:30:35.977Z,96869.55
2022-10-17T15:33:03.177Z,96862.85
2022-10-17T15:35:30.696Z,96868.34
2022-10-17T15:37:57.429Z,96872.13
2022-10-17T15:40:30.049Z,96873.44
2022-10-17T15:42:56.870Z,96874.79
2022-10-17T15:45:24.196Z,96873.00
2022-10-17T15:48:02.234Z,96871.96
2022-10-17T15:50:29.970Z,96877.08
2022-10-17T15:52:56.765Z,96878.86
2022-10-17T15:55:24.218Z,96880.70
2022-10-17T15:57:51.040Z,96882.33
2022-10-17T16:00:23.367Z,96884.84
2022-10-17T16:02:50.648Z,96882.60
2022-10-17T16:05:25.073Z,96885.05
2022-10-17T16:07:53.402Z,96884.77
2022-10-17T16:10:21.675Z,96887.30
2022-10-17T16:12:49.481Z,96892.13
2022-10-17T16:15:24.500Z,96891.79
2022-10-17T16:17:53.198Z,96895.96
2022-10-17T16:20:21.234Z,96897.13
2022-10-17T16:22:50.122Z,96901.85
2022-10-17T16:25:24.671Z,96901.11
2022-10-17T16:27:54.341Z,96906.15
2022-10-17T16:32:56.369Z,96910.68
2022-10-17T16:35:33.078Z,96908.85
2022-10-17T16:38:05.325Z,96911.55
2022-10-17T16:40:32.795Z,96912.42
2022-10-17T16:42:59.595Z,96913.13
2022-10-17T16:45:26.275Z,96914.58
2022-10-17T16:47:53.007Z,96913.08
2022-10-17T16:50:20.040Z,96918.30
2022-10-17T16:52:46.994Z,96918.77
2022-10-17T16:55:13.984Z,96924.13
2022-10-17T17:00:12.252Z,96928.02
2022-10-17T17:02:39.080Z,96926.85
2022-10-17T17:05:06.789Z,96923.52
2022-10-17T17:07:34.066Z,96929.06
2022-10-17T17:10:00.749Z,96928.01
2022-10-17T17:12:27.439Z,96930.75
2022-10-17T17:14:54.169Z,96932.34
2022-10-17T17:17:44.578Z,96933.39
2022-10-17T17:20:07.779Z,96934.64
2022-10-17T17:22:34.633Z,96933.60
2022-10-17T17:25:01.359Z,96937.48
2022-10-17T17:27:28.474Z,96939.88
2022-10-17T17:29:55.460Z,96941.40
2022-10-17T17:32:22.314Z,96940.15
2022-10-17T17:34:49.127Z,96940.35
2022-10-17T17:37:15.782Z,96942.98
2022-10-17T17:39:42.364Z,96938.86
2022-10-17T17:42:09.213Z,96940.96
2022-10-17T17:44:36.040Z,96941.66
2022-10-17T17:47:02.766Z,96942.94
2022-10-17T17:49:29.713Z,96942.89
2022-10-17T17:51:56.518Z,96942.60
2022-10-17T17:54:23.279Z,96944.44
2022-10-17T17:56:50.071Z,96941.42
2022-10-17T17:59:16.814Z,96942.71
2022-10-17T18:01:43.707Z,96942.19
2022-10-17T18:04:11.548Z,96937.39
2022-10-17T18:06:39.312Z,96934.08
2022-10-17T18:09:07.097Z,96931.83
2022-10-17T18:11:34.776Z,96931.61
2022-10-17T18:14:04.656Z,96936.65
2022-10-17T18:16:33.667Z,96933.48
2022-10-17T18:19:06.613Z,96931.95
2022-10-17T18:21:35.507Z,96932.01
2022-10-17T18:24:04.264Z,96934.95
2022-10-17T18:26:31.138Z,96936.92
2022-10-17T18:28:57.842Z,96936.48
2022-10-17T18:31:27.983Z,96936.67
2022-10-17T18:33:57.260Z,96938.55
2022-10-17T18:36:25.649Z,96934.32
2022-10-17T18:38:53.543Z,96938.70
2022-10-17T18:41:23.171Z,96935.98
2022-10-17T18:43:51.368Z,96935.20
2022-10-17T18:46:21.135Z,96934.92
2022-10-17T18:48:49.413Z,96935.02
2022-10-17T18:51:19.809Z,96938.28
2022-10-17T18:53:49.403Z,96938.73
2022-10-17T18:56:17.664Z,96941.09
2022-10-17T18:58:45.359Z,96937.59
2022-10-17T19:01:15.703Z,96936.48
2022-10-17T19:03:44.343Z,96935.00
2022-10-17T19:06:13.912Z,96937.92
2022-10-17T19:08:41.917Z,96935.09
2022-10-17T19:11:12.658Z,96935.20
2022-10-17T19:13:40.425Z,96938.70
2022-10-17T19:16:18.974Z,96942.12
2022-10-17T19:18:55.863Z,96946.65
2022-10-17T19:21:23.075Z,96946.46
2022-10-17T19:23:52.436Z,96941.62
2022-10-17T19:26:20.526Z,96942.23
2022-10-17T19:28:47.808Z,96943.23
2022-10-17T19:31:17.945Z,96940.28
2022-10-17T19:33:45.491Z,96942.02
2022-10-17T19:36:13.140Z,96938.58
2022-10-17T19:38:40.044Z,96937.00
2022-10-17T19:41:08.886Z,96936.53
2022-10-17T19:43:40.159Z,96937.89
2022-10-17T19:46:11.847Z,96934.06
2022-10-17T19:48:38.759Z,96935.54
2022-10-17T19:51:12.275Z,96940.09
2022-10-17T19:53:39.410Z,96938.16
2022-10-17T19:56:06.821Z,96939.24
2022-10-17T19:58:43.073Z,96937.62
2022-10-17T20:01:12.106Z,96935.71
2022-10-17T20:03:38.934Z,96932.35
2022-10-17T20:06:06.279Z,96937.64
2022-10-17T20:08:33.329Z,96940.20
2022-10-17T20:11:08.896Z,96936.92
2022-10-17T20:13:36.425Z,96937.52
2022-10-17T20:16:04.814Z,96936.85
2022-10-17T20:18:32.069Z,96939.21
2022-10-17T20:21:05.403Z,96942.89
2022-10-17T20:23:32.453Z,96941.94
2022-10-17T20:26:25.526Z,96943.13
2022-10-17T20:28:53.093Z,96939.26
2022-10-17T20:31:20.374Z,96935.35
2022-10-17T20:33:47.157Z,96938.09
2022-10-17T20:36:14.244Z,96938.43
2022-10-17T20:38:41.116Z,96935.33
2022-10-17T20:41:09.722Z,96935.80
2022-10-17T20:43:37.469Z,96932.41
2022-10-17T20:46:15.786Z,96931.98
2022-10-17T20:48:54.399Z,96930.06
2022-10-17T20:51:21.398Z,96926.14
2022-10-17T20:53:48.771Z,96926.88
2022-10-17T20:56:25.308Z,96927.48
2022-10-17T20:58:54.713Z,96923.86
2022-10-17T21:01:22.348Z,96925.30
2022-10-17T21:03:49.483Z,96922.60
2022-10-17T21:06:17.386Z,96923.36
2022-10-17T21:08:45.486Z,96923.33
2022-10-17T21:11:16.236Z,96923.71
2022-10-17T21:13:44.010Z,96928.45
2022-10-17T21:16:13.671Z,96926.45
2022-10-17T21:18:41.035Z,96928.73
2022-10-17T21:21:10.872Z,96924.99
2022-10-17T21:23:39.145Z,96928.84
2022-10-17T21:26:09.954Z,96932.05
2022-10-17T21:28:37.079Z,96928.52
2022-10-17T21:31:20.185Z,96929.87
2022-10-17T21:33:49.875Z,96927.80
2022-10-17T21:36:17.943Z,96930.52
2022-10-17T21:38:46.495Z,96930.90
2022-10-17T21:41:15.790Z,96931.92
2022-10-17T21:43:42.845Z,96931.09
2022-10-17T21:46:12.187Z,96929.36
2022-10-17T21:48:39.091Z,96928.30
2022-10-17T21:51:09.529Z,96931.40
2022-10-17T21:53:37.145Z,96930.33
2022-10-17T21:56:06.982Z,96930.56
2022-10-17T21:58:33.987Z,96930.25
2022-10-17T22:01:14.719Z,96930.02
2022-10-17T22:03:46.814Z,96926.16
2022-10-17T22:09:05.648Z,96918.67
2022-10-17T22:11:34.972Z,96919.27
2022-10-17T22:14:05.427Z,96917.86
2022-10-17T22:16:33.034Z,96914.24
2022-10-17T22:19:04.929Z,96914.09
2022-10-17T22:21:35.502Z,96910.48
2022-10-17T22:24:05.972Z,96909.73
2022-10-17T22:26:34.494Z,96910.61
2022-10-17T22:29:01.705Z,96904.73
2022-10-17T22:31:28.504Z,96907.49
2022-10-17T22:33:55.685Z,96905.30
2022-10-17T22:36:22.516Z,96903.20
2022-10-17T22:38:49.840Z,96905.02
2022-10-17T22:41:17.289Z,96902.73
2022-10-17T22:43:44.330Z,96905.21
2022-10-17T22:46:13.242Z,96906.68
2022-10-17T22:48:40.022Z,96902.30
2022-10-17T22:51:06.887Z,96902.33
2022-10-17T22:53:34.685Z,96900.44
2022-10-17T22:56:06.287Z,96897.85
2022-10-17T22:58:34.485Z,96898.29
2022-10-17T23:01:02.399Z,96897.86
2022-10-17T23:03:30.857Z,96891.70
2022-10-17T23:05:58.188Z,96893.16
2022-10-17T23:08:26.735Z,96892.49
2022-10-17T23:10:53.826Z,96889.80
2022-10-17T23:13:21.400Z,96890.29
2022-10-17T23:15:56.110Z,96891.09
2022-10-17T23:18:24.940Z,96892.88
2022-10-17T23:20:52.717Z,96891.32
2022-10-17T23:23:20.310Z,96891.53
2022-10-17T23:25:47.878Z,96889.53
2022-10-17T23:28:14.965Z,96891.77
2022-10-17T23:30:41.836Z,96890.35
2022-10-17T23:33:11.200Z,96891.32
2022-10-17T23:35:38.049Z,96888.38
2022-10-17T23:38:04.711Z,96886.89
2022-10-17T23:40:31.606Z,96887.01
2022-10-17T23:42:58.545Z,96884.05
2022-10-17T23:45:25.256Z,96885.67
2022-10-17T23:47:52.140Z,96878.48
2022-10-17T23:50:18.769Z,96875.17
2022-10-17T23:52:45.501Z,96873.27
2022-10-17T23:55:12.370Z,96870.61
2022-10-17T23:57:39.010Z,96870.20
